createdAt,value
2023-05-20T00:02:34.656Z,101494.16
2023-05-20T00:07:37.168Z,101502.44
2023-05-20T00:12:39.946Z,101488.69
2023-05-20T00:17:42.492Z,101500.78
2023-05-20T00:22:45.024Z,101499.47
2023-05-20T00:27:47.687Z,101507.59
2023-05-20T00:32:50.211Z,101492.38
2023-05-20T00:37:52.759Z,101495.34
2023-05-20T00:42:55.368Z,101484.25
2023-05-20T00:48:00.013Z,101487.56
2023-05-20T00:53:02.706Z,101485.59
2023-05-20T00:58:05.257Z,101491.00
2023-05-20T01:03:08.127Z,101487.66
2023-05-20T01:08:11.019Z,101485.22
2023-05-20T01:13:17.857Z,101490.47
2023-05-20T01:18:21.180Z,101482.03
2023-05-20T01:23:23.672Z,101483.94
2023-05-20T01:28:27.385Z,101488.69
2023-05-20T01:33:31.965Z,101490.34
2023-05-20T01:38:37.039Z,101492.53
2023-05-20T01:43:40.308Z,101490.38
2023-05-20T01:48:44.092Z,101492.69
2023-05-20T01:53:46.654Z,101506.25
2023-05-20T01:58:49.154Z,101494.31
2023-05-20T02:03:51.767Z,101490.78
2023-05-20T02:08:54.455Z,101491.34
2023-05-20T02:13:57.400Z,101503.00
2023-05-20T02:19:00.156Z,101496.34
2023-05-20T02:24:02.667Z,101513.34
2023-05-20T02:29:05.446Z,101510.25
2023-05-20T02:34:08.153Z,101514.50
2023-05-20T02:39:11.130Z,101510.69
2023-05-20T02:44:13.662Z,101514.59
2023-05-20T02:49:16.293Z,101511.00
2023-05-20T02:54:18.905Z,101504.13
2023-05-20T02:59:21.498Z,101508.16
2023-05-20T03:04:25.895Z,101511.22
2023-05-20T03:09:28.545Z,101516.91
2023-05-20T03:14:31.091Z,101515.94
2023-05-20T03:19:33.519Z,101507.34
2023-05-20T03:24:36.073Z,101519.94
2023-05-20T03:29:38.639Z,101522.94
2023-05-20T03:34:41.208Z,101511.91
2023-05-20T03:39:43.824Z,101512.28
2023-05-20T03:44:46.998Z,101510.19
2023-05-20T03:49:51.733Z,101513.25
2023-05-20T03:54:54.916Z,101517.06
2023-05-20T03:59:57.443Z,101525.47
2023-05-20T04:05:01.709Z,101529.34
2023-05-20T04:10:07.672Z,101544.59
2023-05-20T04:15:10.967Z,101541.34
2023-05-20T04:20:27.478Z,101537.69
2023-05-20T04:25:33.627Z,101536.97
2023-05-20T04:30:36.578Z,101546.06
2023-05-20T04:35:41.877Z,101557.47
2023-05-20T04:40:45.844Z,101558.78
2023-05-20T04:45:48.518Z,101565.97
2023-05-20T04:50:52.417Z,101575.63
2023-05-20T04:55:57.110Z,101573.84
2023-05-20T05:01:00.310Z,101576.19
2023-05-20T05:06:03.290Z,101570.31
2023-05-20T05:11:07.151Z,101570.38
2023-05-20T05:16:09.829Z,101580.03
2023-05-20T05:21:12.376Z,101578.94
2023-05-20T05:26:15.125Z,101578.97
2023-05-20T05:31:19.475Z,101585.47
2023-05-20T05:36:22.059Z,101579.13
2023-05-20T05:41:25.517Z,101579.38
2023-05-20T05:46:28.246Z,101575.25
2023-05-20T05:51:31.461Z,101585.91
2023-05-20T05:56:34.368Z,101578.41
2023-05-20T06:01:37.834Z,101573.13
2023-05-20T06:06:41.435Z,101580.59
2023-05-20T06:11:44.772Z,101586.69
2023-05-20T06:16:48.245Z,101583.59
2023-05-20T06:21:50.785Z,101584.56
2023-05-20T06:26:53.453Z,101591.06
2023-05-20T06:31:56.139Z,101586.16
2023-05-20T06:36:59.574Z,101581.94
2023-05-20T06:42:02.147Z,101582.19
2023-05-20T06:47:05.955Z,101570.16
2023-05-20T06:52:08.775Z,101574.22
2023-05-20T06:57:11.404Z,101581.69
2023-05-20T07:02:14.087Z,101574.88
2023-05-20T07:07:17.455Z,101564.19
2023-05-20T07:12:21.406Z,101569.47
2023-05-20T07:17:24.920Z,101561.25
2023-05-20T07:22:27.635Z,101563.94
2023-05-20T07:27:34.245Z,101563.88
2023-05-20T07:32:38.151Z,101565.81
2023-05-20T07:37:41.770Z,101556.47
2023-05-20T07:42:44.343Z,101559.03
2023-05-20T07:47:46.931Z,101552.66
2023-05-20T07:52:56.677Z,101553.38
2023-05-20T07:58:03.806Z,101543.47
2023-05-20T08:03:09.417Z,101546.06
2023-05-20T08:08:30.882Z,101544.91
2023-05-20T08:13:42.987Z,101553.34
2023-05-20T08:18:45.697Z,101563.84
2023-05-20T08:23:48.970Z,101551.31
2023-05-20T08:28:51.593Z,101536.56
2023-05-20T08:33:55.113Z,101543.03
2023-05-20T08:38:57.694Z,101530.75
2023-05-20T08:44:02.889Z,101541.28
2023-05-20T08:49:06.597Z,101537.84
2023-05-20T08:54:10.377Z,101519.06
2023-05-20T08:59:13.017Z,101518.78
2023-05-20T09:04:15.598Z,101528.31
2023-05-20T09:09:18.148Z,101516.63
2023-05-20T09:14:21.040Z,101520.00
2023-05-20T09:19:24.806Z,101509.50
2023-05-20T09:24:27.416Z,101507.66
2023-05-20T09:29:34.158Z,101505.09
2023-05-20T09:34:38.008Z,101489.75
2023-05-20T09:40:04.364Z,101484.03
2023-05-20T09:45:09.794Z,101479.50
2023-05-20T09:50:13.384Z,101484.13
2023-05-20T09:55:18.092Z,101481.25
2023-05-20T10:00:22.102Z,101475.00
2023-05-20T10:05:38.223Z,101473.50
2023-05-20T10:11:03.616Z,101475.50
2023-05-20T10:16:43.599Z,101470.56
2023-05-20T10:22:01.504Z,101476.31
2023-05-20T10:27:08.047Z,101470.44
2023-05-20T10:32:10.701Z,101464.81
2023-05-20T10:37:26.718Z,101461.47
2023-05-20T10:42:30.712Z,101465.94
2023-05-20T10:47:33.480Z,101476.34
2023-05-20T10:52:39.120Z,101454.59
2023-05-20T10:57:41.765Z,101456.81
2023-05-20T11:02:45.692Z,101456.19
2023-05-20T11:07:48.246Z,101439.16
2023-05-20T11:12:51.019Z,101442.38
2023-05-20T11:17:58.097Z,101427.38
2023-05-20T11:23:01.654Z,101435.94
2023-05-20T11:28:04.217Z,101429.16
2023-05-20T11:33:07.028Z,101431.16
2023-05-20T11:38:10.050Z,101434.84
2023-05-20T11:43:13.690Z,101418.59
2023-05-20T11:48:16.368Z,101421.78
2023-05-20T11:53:21.186Z,101429.59
2023-05-20T11:58:26.342Z,101429.81
2023-05-20T12:03:29.026Z,101416.97
2023-05-20T12:08:31.688Z,101423.22
2023-05-20T12:13:35.477Z,101423.47
2023-05-20T12:18:38.276Z,101432.09
2023-05-20T12:23:40.677Z,101428.81
2023-05-20T12:28:44.167Z,101415.28
2023-05-20T12:33:46.815Z,101408.03
2023-05-20T12:38:49.329Z,101398.44
2023-05-20T12:43:51.751Z,101401.59
2023-05-20T12:48:54.180Z,101407.38
2023-05-20T12:53:56.675Z,101370.75
2023-05-20T12:58:59.093Z,101398.53
2023-05-20T13:04:01.662Z,101375.59
2023-05-20T13:09:04.256Z,101392.91
2023-05-20T13:14:06.696Z,101379.41
2023-05-20T13:19:09.220Z,101373.28
2023-05-20T13:24:11.811Z,101361.34
2023-05-20T13:29:14.447Z,101368.38
2023-05-20T13:34:17.075Z,101368.84
2023-05-20T13:39:19.662Z,101361.94
2023-05-20T13:44:22.273Z,101363.28
2023-05-20T13:49:25.946Z,101356.84
2023-05-20T13:54:28.375Z,101340.41
2023-05-20T13:59:30.989Z,101338.78
2023-05-20T14:04:38.427Z,101338.47
2023-05-20T14:09:40.927Z,101328.66
2023-05-20T14:14:43.507Z,101327.47
2023-05-20T14:19:46.113Z,101329.94
2023-05-20T14:24:48.644Z,101320.97
2023-05-20T14:29:51.466Z,101322.25
2023-05-20T14:34:54.236Z,101313.63
2023-05-20T14:39:56.927Z,101312.00
2023-05-20T14:44:59.466Z,101313.25
2023-05-20T14:50:04.461Z,101307.53
2023-05-20T14:55:08.438Z,101314.09
2023-05-20T15:00:12.026Z,101329.25
2023-05-20T15:05:15.077Z,101317.44
2023-05-20T15:10:18.169Z,101320.31
2023-05-20T15:15:21.091Z,101325.31
2023-05-20T15:20:23.566Z,101337.59
2023-05-20T15:25:26.000Z,101334.75
2023-05-20T15:30:28.560Z,101331.94
2023-05-20T15:35:31.126Z,101335.19
2023-05-20T15:40:34.243Z,101338.03
2023-05-20T15:45:36.779Z,101347.50
2023-05-20T15:50:40.432Z,101356.47
2023-05-20T15:55:44.874Z,101363.84
2023-05-20T16:00:48.412Z,101370.72
2023-05-20T16:05:50.998Z,101378.44
2023-05-20T16:10:53.632Z,101370.19
2023-05-20T16:15:57.962Z,101376.59
2023-05-20T16:21:00.928Z,101371.59
2023-05-20T16:26:03.959Z,101380.06
2023-05-20T16:31:06.597Z,101375.47
2023-05-20T16:36:09.211Z,101376.13
2023-05-20T16:41:11.823Z,101379.63
2023-05-20T16:46:14.936Z,101384.38
2023-05-20T16:51:19.185Z,101379.75
2023-05-20T16:56:23.355Z,101385.19
2023-05-20T17:01:26.191Z,101390.59
2023-05-20T17:06:28.711Z,101383.41
2023-05-20T17:11:31.329Z,101393.34
2023-05-20T17:16:34.175Z,101397.25
2023-05-20T17:21:37.092Z,101399.81
2023-05-20T17:26:39.582Z,101401.13
2023-05-20T17:31:42.524Z,101407.78
2023-05-20T17:36:45.186Z,101407.53
2023-05-20T17:41:47.619Z,101417.53
2023-05-20T17:46:50.126Z,101416.38
2023-05-20T17:51:52.613Z,101419.63
2023-05-20T17:56:55.099Z,101419.66
2023-05-20T18:01:57.698Z,101415.75
2023-05-20T18:07:00.255Z,101421.00
2023-05-20T18:12:02.872Z,101414.63
2023-05-20T18:17:05.776Z,101416.91
2023-05-20T18:22:08.410Z,101418.63
2023-05-20T18:27:11.068Z,101429.47
2023-05-20T18:32:14.552Z,101428.03
2023-05-20T18:37:17.074Z,101430.19
2023-05-20T18:42:19.708Z,101438.13
2023-05-20T18:47:22.368Z,101437.88
2023-05-20T18:52:24.991Z,101446.97
2023-05-20T18:57:27.524Z,101460.34
2023-05-20T19:02:30.062Z,101453.00
2023-05-20T19:07:32.478Z,101464.41
2023-05-20T19:12:34.984Z,101467.38
2023-05-20T19:17:37.899Z,101478.81
2023-05-20T19:22:40.483Z,101475.16
2023-05-20T19:27:42.984Z,101477.00
2023-05-20T19:32:45.456Z,101473.25
2023-05-20T19:37:47.944Z,101475.28
2023-05-20T19:42:51.873Z,101486.56
2023-05-20T19:47:56.881Z,101491.72
2023-05-20T19:52:59.905Z,101486.81
2023-05-20T19:58:02.413Z,101483.22
2023-05-20T20:03:07.449Z,101479.38
2023-05-20T20:08:09.925Z,101484.91
2023-05-20T20:13:12.499Z,101489.53
2023-05-20T20:18:14.985Z,101474.84
2023-05-20T20:23:17.606Z,101484.31
2023-05-20T20:28:20.236Z,101473.44
2023-05-20T20:33:22.731Z,101475.69
2023-05-20T20:38:25.291Z,101474.63
2023-05-20T20:43:29.076Z,101464.03
2023-05-20T20:48:31.622Z,101462.59
2023-05-20T20:53:34.205Z,101465.41
2023-05-20T20:58:37.958Z,101467.69
2023-05-20T21:03:44.794Z,101468.13
2023-05-20T21:08:48.198Z,101466.63
2023-05-20T21:13:50.674Z,101457.44
2023-05-20T21:18:53.206Z,101453.09
2023-05-20T21:23:56.835Z,101448.75
2023-05-20T21:28:59.433Z,101450.75
2023-05-20T21:34:01.944Z,101439.00
2023-05-20T21:39:04.650Z,101437.31
2023-05-20T21:44:07.214Z,101442.38
2023-05-20T21:49:09.855Z,101435.91
2023-05-20T21:54:12.417Z,101433.44
2023-05-20T21:59:15.163Z,101431.06
2023-05-20T22:12:01.629Z,101414.75
2023-05-20T22:17:04.386Z,101416.84
2023-05-20T22:22:07.069Z,101412.72
2023-05-20T22:27:09.539Z,101414.88
2023-05-20T22:32:12.129Z,101410.41
2023-05-20T22:37:14.736Z,101410.13
2023-05-20T22:42:17.463Z,101405.31
2023-05-20T22:47:19.868Z,101398.25
2023-05-20T22:52:25.758Z,101395.97
2023-05-20T22:57:29.622Z,101380.19
2023-05-20T23:02:32.087Z,101392.75
2023-05-20T23:07:34.766Z,101386.69
2023-05-20T23:12:37.491Z,101392.56
2023-05-20T23:17:40.057Z,101393.53
2023-05-20T23:22:44.825Z,101386.25
2023-05-20T23:27:47.245Z,101383.78
2023-05-20T23:32:50.303Z,101387.66
2023-05-20T23:37:52.695Z,101390.34
2023-05-20T23:42:55.089Z,101388.91
2023-05-20T23:47:57.503Z,101391.66
2023-05-20T23:53:00.022Z,101400.16
2023-05-20T23:58:02.688Z,101389.63
